Share

Ahoskie, NC

Nowell Farm Road (KNCCOLER2) Elev 79 ft | 36.19 °N, 76.82 °W | Change Station

Current weather conditions updated 4 seconds ago

Clear
Clear
50.2 °F
Feels Like 50.2 °F
N
9.8
Wind Variable Wind from NE
Gusts 12.3 mph
Sunrise 6:31 AM
Sunset 7:43 PM
Moon Waning Gibbous

Tomorrow is forecast to be nearly the same temperature as today. Periods of rain late tomorrow night.

Pressure 30.53 in
Visibility 10.0 miles
Clouds Clear
Dew Point 42 °F
Humidity 72%
Rainfall 0.00 in
Snow Depth Not available.
UV 0 out of 16
Pollen 10.00 out of 12
Air Quality Not available.
Flu Activity Local Activity
METAR KFKN 172315Z AUTO 07015G18KT 10SM CLR 09/03 A3053 RMK AO1

More Conditions Fewer Conditions

Pressure 30.53 in
Visibility 10.0 miles
Clouds Clear
Dew Point 42 °F
Humidity 72%
Rainfall 0.00 in
Snow Depth Not available.
UV 0 out of 16
Pollen 10.00 out of 12
Air Quality Not available.
Flu Activity Local Activity
METAR KFKN 172315Z AUTO 07015G18KT 10SM CLR 09/03 A3053 RMK AO1

More Conditions Fewer Conditions

10-Day Forecast

Almanac

Astronomy

Apr. 17, 2014 Rise Set
Actual Time 6:31 AM EDT 7:43 PM EDT
Civil Twilight 6:05 AM EDT 8:10 PM EDT
Nautical Twilight 5:33 AM EDT 8:42 PM EDT
Astronomical Twilight 5:00 AM EDT 9:15 PM EDT
Moon 10:23 PM EDT 8:05 AM EDT
Length of Visible Light 14h 05m
Length of Day
13h 11m
Tomorrow will be 2m 10s longer.
Waning Gibbous, 92% of the Moon is Illuminated
Today
Waning Gibbous
Apr 22
Last Quarter
Apr 29
New
May 6
First Quarter
May 14
Full

Today's Extremes

State Highs State Lows

Community

  • Morning Light
    Morning Light
  • New Day
    New Day
  • Lake Michigan Sunrise
    Lake Michigan Sunrise
  • sunset from izmir, narlıdere
    sunset from izmir, narlıdere
  • oregon cherry
    oregon cherry

WunderPhotos

Upload Photos

1,702,170 photos uploaded!

WunderBlogs® & News

Nearby

Snow Depth

Station Depth Elevation
No new snow has been reported.

Coastal Water Temperatures

Place Temperature
Oregon Inlet Marina, NC 52.0 °F
Duck Pier, NC 51.1 °F
Hatteras, NC 55.9 °F
Money Point, VA 57.0 °F
Sewells Point, VA 55.9 °F
Chesapeake Bay Bridge Tunnel, VA 52.0 °F

Earthquake Activity

City Distance Mag. Time & Date
No recent earthquake activity has been reported nearby.
Minimum magnitude displayed is 2.5.

Nearby Weather Stations

Station Location Temp. Windchill Dew Point Humidity Wind Precip. Elev Updated Type
Nowell Farm Road, Colerain, NC 50.2 °F - 42 °F 72% NE  at  9.8 mph 0.00 in / hr 79 ft 7:27 PM EDT Rapid Fire
Ashley's Grove, Conway, NC 50.6 °F - 40 °F 68% NE  at  3.0 mph 0.00 in / hr 138 ft 7:27 PM EDT Rapid Fire
Conway - 35S, Conway, NC 49.7 °F 50 °F 37 °F 62% NNE  at  3.0 mph 0.00 in / hr 112 ft 7:27 PM EDT Normal
RAWS GREENS CROSS NC, Windsor, NC 60 °F - 42 °F 51% NE  at  5 mph 0.00 in / hr 41 ft 6:17 PM EDT MADIS

Show More Stations Show Fewer Stations

What do you think?

We're not finished. Please let us know what you like, what you don't like, and what you are still missing.